createdAt,value
2023-01-07T00:01:12.009Z,45
2023-01-07T00:03:12.153Z,59
2023-01-07T00:05:12.263Z,67
2023-01-07T00:07:12.401Z,61
2023-01-07T00:09:12.515Z,68
2023-01-07T00:11:12.590Z,81
2023-01-07T00:13:12.673Z,100
2023-01-07T00:15:12.799Z,116
2023-01-07T00:17:13.063Z,112
2023-01-07T00:19:12.990Z,106
2023-01-07T00:21:13.119Z,102
2023-01-07T00:23:13.207Z,98
2023-01-07T00:25:13.337Z,100
2023-01-07T00:27:13.451Z,104
2023-01-07T00:29:13.594Z,103
2023-01-07T00:31:13.737Z,124
2023-01-07T00:33:13.810Z,116
2023-01-07T00:35:13.938Z,114
2023-01-07T00:37:14.021Z,141
2023-01-07T00:39:14.149Z,119
2023-01-07T00:41:14.241Z,115
2023-01-07T00:43:14.341Z,107
2023-01-07T00:45:14.798Z,85
2023-01-07T00:47:14.586Z,77
2023-01-07T00:49:14.724Z,81
2023-01-07T00:51:14.848Z,77
2023-01-07T00:53:14.929Z,70
2023-01-07T00:55:15.035Z,68
2023-01-07T00:57:15.246Z,66
2023-01-07T00:59:15.352Z,64
2023-01-07T01:01:15.467Z,63
2023-01-07T01:03:15.447Z,59
2023-01-07T01:05:15.605Z,61
2023-01-07T01:07:15.719Z,62
2023-01-07T01:09:15.818Z,63
2023-01-07T01:11:15.963Z,62
2023-01-07T01:13:18.078Z,70
2023-01-07T01:15:16.144Z,61
2023-01-07T01:17:16.258Z,70
2023-01-07T01:19:16.369Z,91
2023-01-07T01:21:16.502Z,73
2023-01-07T01:23:16.612Z,61
2023-01-07T01:25:16.714Z,59
2023-01-07T01:27:16.837Z,59
2023-01-07T01:29:16.916Z,51
2023-01-07T01:31:17.085Z,51
2023-01-07T01:33:17.147Z,52
2023-01-07T01:35:17.271Z,54
2023-01-07T01:37:17.364Z,54
2023-01-07T01:39:17.431Z,57
2023-01-07T01:41:17.558Z,52
2023-01-07T01:43:17.667Z,57
2023-01-07T01:45:17.759Z,55
2023-01-07T01:47:17.879Z,64
2023-01-07T01:49:18.014Z,62
2023-01-07T01:51:18.167Z,59
2023-01-07T01:53:18.229Z,51
2023-01-07T01:55:18.315Z,41
2023-01-07T01:57:18.435Z,33
2023-01-07T01:59:18.538Z,34
2023-01-07T02:01:18.841Z,32
2023-01-07T02:03:18.772Z,31
2023-01-07T02:05:18.875Z,31
2023-01-07T02:07:19.088Z,26
2023-01-07T02:09:19.118Z,27
2023-01-07T02:11:19.279Z,25
2023-01-07T02:13:19.434Z,26
2023-01-07T02:15:19.496Z,28
2023-01-07T02:17:19.555Z,27
2023-01-07T02:19:19.673Z,30
2023-01-07T02:21:19.744Z,30
2023-01-07T02:23:19.816Z,39
2023-01-07T02:25:19.913Z,40
2023-01-07T02:27:21.111Z,41
2023-01-07T02:29:20.101Z,39
2023-01-07T02:31:20.324Z,39
2023-01-07T02:33:20.316Z,44
2023-01-07T02:35:20.441Z,45
2023-01-07T02:37:20.543Z,53
2023-01-07T02:39:20.645Z,52
2023-01-07T02:41:20.725Z,54
2023-01-07T02:43:20.867Z,49
2023-01-07T02:45:20.948Z,40
2023-01-07T02:47:21.059Z,38
2023-01-07T02:49:21.229Z,36
2023-01-07T02:51:21.258Z,33
2023-01-07T02:53:21.344Z,27
2023-01-07T02:55:21.447Z,29
2023-01-07T02:57:21.571Z,27
2023-01-07T02:59:21.665Z,34
2023-01-07T03:01:21.953Z,47
2023-01-07T03:03:21.999Z,35
2023-01-07T03:05:22.001Z,36
2023-01-07T03:07:22.103Z,35
2023-01-07T03:09:22.200Z,35
2023-01-07T03:11:22.470Z,35
2023-01-07T03:13:22.400Z,39
2023-01-07T03:15:22.523Z,37
2023-01-07T03:17:22.627Z,38
2023-01-07T03:19:22.750Z,39
2023-01-07T03:21:22.963Z,37
2023-01-07T03:23:23.010Z,38
2023-01-07T03:25:23.094Z,41
2023-01-07T03:27:23.185Z,34
2023-01-07T03:29:23.294Z,35
2023-01-07T03:31:23.504Z,37
2023-01-07T03:33:23.503Z,36
2023-01-07T03:35:23.632Z,42
2023-01-07T03:37:23.836Z,42
2023-01-07T03:39:23.864Z,45
2023-01-07T03:41:23.972Z,41
2023-01-07T03:43:24.105Z,41
2023-01-07T03:45:24.187Z,39
2023-01-07T03:47:24.300Z,33
2023-01-07T03:49:24.429Z,33
2023-01-07T03:51:24.675Z,27
2023-01-07T03:53:24.611Z,29
2023-01-07T03:55:24.751Z,32
2023-01-07T03:57:24.842Z,26
2023-01-07T03:59:24.953Z,26
2023-01-07T04:01:25.155Z,27
2023-01-07T04:03:25.168Z,28
2023-01-07T04:05:25.269Z,26
2023-01-07T04:07:25.406Z,26
2023-01-07T04:09:25.488Z,29
2023-01-07T04:11:25.608Z,31
2023-01-07T04:13:25.740Z,24
2023-01-07T04:15:25.858Z,22
2023-01-07T04:17:25.980Z,23
2023-01-07T04:19:26.070Z,22
2023-01-07T04:21:26.219Z,27
2023-01-07T04:23:26.307Z,29
2023-01-07T04:25:26.449Z,27
2023-01-07T04:27:26.516Z,24
2023-01-07T04:29:26.639Z,21
2023-01-07T04:31:26.752Z,20
2023-01-07T04:33:26.871Z,22
2023-01-07T04:35:26.988Z,19
2023-01-07T04:37:27.083Z,20
2023-01-07T04:39:27.212Z,17
2023-01-07T04:41:27.283Z,20
2023-01-07T04:43:27.408Z,29
2023-01-07T04:45:27.530Z,24
2023-01-07T04:47:27.635Z,23
2023-01-07T04:49:27.761Z,23
2023-01-07T04:51:27.839Z,19
2023-01-07T04:53:27.997Z,19
2023-01-07T04:55:28.088Z,19
2023-01-07T04:57:28.293Z,17
2023-01-07T04:59:28.293Z,18
2023-01-07T05:01:28.475Z,19
2023-01-07T05:03:28.493Z,19
2023-01-07T05:05:28.672Z,22
2023-01-07T05:07:28.706Z,21
2023-01-07T05:09:28.861Z,17
2023-01-07T05:11:28.979Z,20
2023-01-07T05:13:29.081Z,20
2023-01-07T05:15:29.189Z,22
2023-01-07T05:17:29.295Z,20
2023-01-07T05:19:29.405Z,21
2023-01-07T05:21:29.523Z,24
2023-01-07T05:23:29.668Z,24
2023-01-07T05:27:29.866Z,23
2023-01-07T05:29:29.980Z,22
2023-01-07T05:31:30.082Z,22
2023-01-07T05:33:30.205Z,21
2023-01-07T05:35:30.328Z,26
2023-01-07T05:37:30.394Z,26
2023-01-07T05:39:30.551Z,29
2023-01-07T05:41:30.647Z,59
2023-01-07T05:43:30.754Z,54
2023-01-07T05:45:30.852Z,47
2023-01-07T05:47:30.968Z,46
2023-01-07T05:49:31.125Z,45
2023-01-07T05:51:31.226Z,44
2023-01-07T05:53:31.288Z,40
2023-01-07T05:55:31.427Z,41
2023-01-07T05:57:31.507Z,40
2023-01-07T05:59:31.651Z,37
2023-01-07T06:01:31.900Z,37
2023-01-07T06:03:31.954Z,34
2023-01-07T06:05:31.980Z,33
2023-01-07T06:07:32.091Z,33
2023-01-07T06:09:32.192Z,33
2023-01-07T06:11:32.287Z,31
2023-01-07T06:13:32.387Z,29
2023-01-07T06:15:32.596Z,28
2023-01-07T06:17:32.647Z,27
2023-01-07T06:19:32.765Z,24
2023-01-07T06:21:32.943Z,25
2023-01-07T06:23:32.972Z,49
2023-01-07T06:25:33.067Z,27
2023-01-07T06:27:33.186Z,29
2023-01-07T06:29:33.329Z,29
2023-01-07T06:31:33.474Z,29
2023-01-07T06:33:33.749Z,30
2023-01-07T06:35:33.671Z,27
2023-01-07T06:37:33.744Z,36
2023-01-07T06:39:33.857Z,52
2023-01-07T06:41:33.944Z,47
2023-01-07T06:43:34.072Z,42
2023-01-07T06:45:34.283Z,50
2023-01-07T06:47:34.358Z,42
2023-01-07T06:49:34.426Z,44
2023-01-07T06:51:34.558Z,59
2023-01-07T06:53:34.636Z,72
2023-01-07T06:55:34.759Z,70
2023-01-07T06:57:34.882Z,66
2023-01-07T06:59:34.980Z,64
2023-01-07T07:01:35.242Z,62
2023-01-07T07:03:35.231Z,64
2023-01-07T07:05:35.306Z,76
2023-01-07T07:07:35.579Z,86
2023-01-07T07:09:35.565Z,90
2023-01-07T07:11:35.665Z,113
2023-01-07T07:13:35.784Z,105
2023-01-07T07:15:35.922Z,102
2023-01-07T07:17:36.042Z,104
2023-01-07T07:19:36.154Z,172
2023-01-07T07:21:36.231Z,154
2023-01-07T07:23:36.361Z,125
2023-01-07T07:25:36.487Z,118
2023-01-07T07:27:36.787Z,103
2023-01-07T07:29:36.726Z,74
2023-01-07T07:31:36.853Z,79
2023-01-07T07:33:36.928Z,81
2023-01-07T07:35:37.020Z,79
2023-01-07T07:37:37.143Z,78
2023-01-07T07:39:37.384Z,66
2023-01-07T07:41:37.396Z,74
2023-01-07T07:43:37.466Z,167
2023-01-07T07:45:37.570Z,115
2023-01-07T07:47:37.692Z,99
2023-01-07T07:49:37.825Z,148
2023-01-07T07:51:37.934Z,162
2023-01-07T07:53:38.052Z,137
2023-01-07T07:55:38.217Z,115
2023-01-07T07:57:38.286Z,115
2023-01-07T07:59:38.379Z,119
2023-01-07T08:01:38.625Z,116
2023-01-07T08:03:38.659Z,115
2023-01-07T08:05:38.706Z,110
2023-01-07T08:07:38.798Z,107
2023-01-07T08:09:38.937Z,107
2023-01-07T08:11:38.992Z,106
2023-01-07T08:13:39.142Z,103
2023-01-07T08:15:39.295Z,103
2023-01-07T08:17:39.327Z,105
2023-01-07T08:19:39.440Z,98
2023-01-07T08:21:39.554Z,105
2023-01-07T08:23:39.674Z,100
2023-01-07T08:25:39.799Z,97
2023-01-07T08:27:39.881Z,96
2023-01-07T08:29:40.002Z,99
2023-01-07T08:31:40.176Z,97
2023-01-07T08:33:40.204Z,115
2023-01-07T08:35:40.315Z,101
2023-01-07T08:37:40.427Z,79
2023-01-07T08:39:40.530Z,70
2023-01-07T08:41:40.747Z,73
2023-01-07T08:43:40.753Z,60
2023-01-07T08:45:40.913Z,63
2023-01-07T08:47:40.987Z,66
2023-01-07T08:49:41.170Z,64
2023-01-07T08:51:41.212Z,94
2023-01-07T08:53:41.349Z,108
2023-01-07T08:55:41.460Z,116
2023-01-07T08:57:41.659Z,101
2023-01-07T08:59:41.695Z,83
2023-01-07T09:01:41.905Z,79
2023-01-07T09:03:41.909Z,75
2023-01-07T09:05:41.976Z,74
2023-01-07T09:07:42.124Z,68
2023-01-07T09:09:42.248Z,84
2023-01-07T09:11:42.321Z,73
2023-01-07T09:13:42.433Z,131
2023-01-07T09:15:42.555Z,84
2023-01-07T09:17:42.652Z,206
2023-01-07T09:19:42.763Z,100
2023-01-07T09:21:42.839Z,238
2023-01-07T09:23:42.963Z,136
2023-01-07T09:25:43.069Z,385
2023-01-07T09:27:43.198Z,345
2023-01-07T09:29:43.424Z,309
2023-01-07T09:31:43.691Z,460
2023-01-07T09:33:43.513Z,523
2023-01-07T09:35:43.645Z,339
2023-01-07T09:37:43.740Z,370
2023-01-07T09:39:43.846Z,406
2023-01-07T09:41:43.981Z,177
2023-01-07T09:44:00.891Z,213
2023-01-07T09:45:44.249Z,209
2023-01-07T09:47:44.263Z,149
2023-01-07T09:49:44.370Z,130
2023-01-07T09:51:44.475Z,111
2023-01-07T09:53:44.613Z,111
2023-01-07T09:56:11.848Z,86
2023-01-07T09:57:44.790Z,65
2023-01-07T09:59:44.908Z,52
2023-01-07T10:01:44.995Z,43
2023-01-07T10:03:45.184Z,45
2023-01-07T10:05:45.208Z,42
2023-01-07T10:07:45.349Z,43
2023-01-07T10:09:45.439Z,37
2023-01-07T10:11:45.560Z,35
2023-01-07T10:13:45.630Z,36
2023-01-07T10:15:45.753Z,42
2023-01-07T10:17:45.850Z,66
2023-01-07T10:19:45.966Z,60
2023-01-07T10:21:46.046Z,64
2023-01-07T10:23:46.116Z,63
2023-01-07T10:25:46.214Z,67
2023-01-07T10:27:46.350Z,64
2023-01-07T10:29:46.434Z,69
2023-01-07T10:31:46.680Z,65
2023-01-07T10:33:46.648Z,64
2023-01-07T10:35:46.711Z,58
2023-01-07T10:37:46.849Z,56
2023-01-07T10:39:46.932Z,61
2023-01-07T10:41:47.034Z,68
2023-01-07T10:43:47.124Z,61
2023-01-07T10:45:47.267Z,61
2023-01-07T10:47:47.332Z,59
2023-01-07T10:49:47.428Z,65
2023-01-07T10:51:47.556Z,53
2023-01-07T10:53:47.631Z,55
2023-01-07T10:55:47.708Z,55
2023-01-07T10:57:47.799Z,54
2023-01-07T10:59:47.891Z,60
2023-01-07T11:01:48.135Z,53
2023-01-07T11:03:48.129Z,48
2023-01-07T11:05:48.229Z,46
2023-01-07T11:07:48.341Z,48
2023-01-07T11:09:48.422Z,53
2023-01-07T11:11:48.523Z,52
2023-01-07T11:13:48.604Z,52
2023-01-07T11:15:48.660Z,48
2023-01-07T11:17:48.758Z,55
2023-01-07T11:19:48.943Z,62
2023-01-07T11:21:48.985Z,48
2023-01-07T11:23:49.067Z,52
2023-01-07T11:25:49.173Z,50
2023-01-07T11:27:49.270Z,48
2023-01-07T11:29:51.426Z,46
2023-01-07T11:31:49.577Z,48
2023-01-07T11:34:01.558Z,110
2023-01-07T11:35:49.683Z,128
2023-01-07T11:37:49.779Z,43
2023-01-07T11:39:49.871Z,42
2023-01-07T11:41:49.955Z,43
2023-01-07T11:43:50.058Z,45
2023-01-07T11:46:20.372Z,42
2023-01-07T11:47:50.260Z,37
2023-01-07T11:49:50.377Z,37
2023-01-07T11:51:50.537Z,39
2023-01-07T11:53:50.534Z,39
2023-01-07T11:55:50.724Z,39
2023-01-07T11:57:50.729Z,42
2023-01-07T11:59:50.845Z,37
2023-01-07T12:01:50.886Z,44
2023-01-07T12:03:51.053Z,35
2023-01-07T12:05:51.077Z,32
2023-01-07T12:07:51.190Z,36
2023-01-07T12:09:51.251Z,36
2023-01-07T12:11:51.357Z,32
2023-01-07T12:13:51.454Z,32
2023-01-07T12:15:51.556Z,34
2023-01-07T12:17:51.683Z,39
2023-01-07T12:19:51.745Z,38
2023-01-07T12:21:51.843Z,38
2023-01-07T12:23:51.957Z,36
2023-01-07T12:25:52.022Z,35
2023-01-07T12:27:52.089Z,34
2023-01-07T12:29:52.175Z,33
2023-01-07T12:31:52.254Z,61
2023-01-07T12:33:52.335Z,44
2023-01-07T12:35:52.431Z,41
2023-01-07T12:37:52.529Z,44
2023-01-07T12:39:54.383Z,42
2023-01-07T12:41:52.730Z,35
2023-01-07T12:43:54.009Z,39
2023-01-07T12:45:52.946Z,34
2023-01-07T12:47:52.975Z,37
2023-01-07T12:49:53.036Z,50
2023-01-07T12:51:53.128Z,100
2023-01-07T12:53:53.255Z,61
2023-01-07T12:55:53.309Z,106
2023-01-07T12:57:53.418Z,76
2023-01-07T12:59:53.521Z,42
2023-01-07T13:01:53.711Z,42
2023-01-07T13:03:53.671Z,35
2023-01-07T13:05:53.752Z,31
2023-01-07T13:07:53.837Z,34
2023-01-07T13:09:53.922Z,37
2023-01-07T13:11:54.000Z,57
2023-01-07T13:13:54.079Z,71
2023-01-07T13:15:54.238Z,80
2023-01-07T13:17:54.277Z,203
2023-01-07T13:19:54.657Z,72
2023-01-07T13:22:24.644Z,65
2023-01-07T13:24:54.790Z,86
2023-01-07T13:26:24.847Z,103
2023-01-07T13:28:24.964Z,90
2023-01-07T13:30:25.077Z,53
2023-01-07T13:32:25.156Z,61
2023-01-07T13:34:25.291Z,70
2023-01-07T13:36:25.390Z,78
2023-01-07T13:38:25.479Z,84
2023-01-07T13:40:25.625Z,88
2023-01-07T13:42:25.677Z,78
2023-01-07T13:44:25.798Z,70
2023-01-07T13:46:25.966Z,67
2023-01-07T13:48:26.010Z,69
2023-01-07T13:50:26.131Z,68
2023-01-07T13:52:26.255Z,60
2023-01-07T13:54:26.363Z,64
2023-01-07T13:56:26.451Z,68
2023-01-07T13:58:26.528Z,68
2023-01-07T14:00:26.634Z,69
2023-01-07T14:02:26.893Z,75
2023-01-07T14:04:26.831Z,80
2023-01-07T14:06:26.943Z,73
2023-01-07T14:08:27.012Z,83
2023-01-07T14:10:27.144Z,86
2023-01-07T14:12:27.254Z,87
2023-01-07T14:14:27.328Z,73
2023-01-07T14:16:27.437Z,70
2023-01-07T14:18:27.547Z,61
2023-01-07T14:20:27.619Z,56
2023-01-07T14:22:27.720Z,50
2023-01-07T14:24:27.857Z,52
2023-01-07T14:26:27.952Z,70
2023-01-07T14:28:28.082Z,68
2023-01-07T14:32:28.258Z,68
2023-01-07T14:34:28.359Z,68
2023-01-07T14:38:28.547Z,78
2023-01-07T14:40:28.682Z,90
2023-01-07T14:42:28.738Z,89
2023-01-07T14:44:28.818Z,82
2023-01-07T14:46:28.990Z,77
2023-01-07T14:48:29.053Z,74
2023-01-07T14:50:29.144Z,77
2023-01-07T14:52:29.245Z,75
2023-01-07T14:54:29.320Z,72
2023-01-07T14:56:29.395Z,67
2023-01-07T14:58:29.495Z,68
2023-01-07T15:00:29.631Z,74
2023-01-07T15:02:29.842Z,69
2023-01-07T15:04:31.917Z,69
2023-01-07T15:06:29.825Z,67
2023-01-07T15:08:29.946Z,79
2023-01-07T15:10:30.031Z,74
2023-01-07T15:12:30.146Z,75
2023-01-07T15:14:30.234Z,99
2023-01-07T15:16:30.450Z,98
2023-01-07T15:18:30.430Z,89
2023-01-07T15:20:30.596Z,93
2023-01-07T15:22:30.634Z,108
2023-01-07T15:24:30.724Z,100
2023-01-07T15:26:30.801Z,111
2023-01-07T15:28:30.890Z,101
2023-01-07T15:30:30.997Z,92
2023-01-07T15:32:31.110Z,122
2023-01-07T15:34:31.220Z,147
2023-01-07T15:36:31.310Z,172
2023-01-07T15:38:31.399Z,165
2023-01-07T15:40:31.485Z,192
2023-01-07T15:42:31.602Z,216
2023-01-07T15:44:31.686Z,169
2023-01-07T15:46:31.835Z,116
2023-01-07T15:48:31.913Z,117
2023-01-07T15:50:32.020Z,101
2023-01-07T15:52:32.108Z,95
2023-01-07T15:54:32.194Z,186
2023-01-07T15:56:32.307Z,92
2023-01-07T15:58:32.383Z,63
2023-01-07T16:00:32.504Z,32
2023-01-07T16:02:32.677Z,29
2023-01-07T16:04:32.770Z,33
2023-01-07T16:06:32.855Z,34
2023-01-07T16:08:32.863Z,49
2023-01-07T16:10:32.951Z,59
2023-01-07T16:12:33.059Z,75
2023-01-07T16:14:33.152Z,66
2023-01-07T16:16:33.344Z,52
2023-01-07T16:18:33.371Z,48
2023-01-07T16:20:33.491Z,48
2023-01-07T16:22:33.572Z,51
2023-01-07T16:24:33.629Z,52
2023-01-07T16:26:33.758Z,46
2023-01-07T16:28:33.857Z,42
2023-01-07T16:30:33.924Z,33
2023-01-07T16:32:34.021Z,30
2023-01-07T16:34:34.112Z,27
2023-01-07T16:36:34.181Z,35
2023-01-07T16:38:34.281Z,38
2023-01-07T16:40:34.400Z,50
2023-01-07T16:42:34.512Z,42
2023-01-07T16:44:34.586Z,47
2023-01-07T16:46:34.736Z,50
2023-01-07T16:48:34.729Z,46
2023-01-07T16:50:34.846Z,64
2023-01-07T16:52:34.944Z,43
2023-01-07T16:54:35.038Z,69
2023-01-07T16:56:35.090Z,62
2023-01-07T16:58:35.174Z,56
2023-01-07T17:00:35.323Z,61
2023-01-07T17:02:35.428Z,57
2023-01-07T17:04:35.502Z,49
2023-01-07T17:06:35.556Z,53
2023-01-07T17:08:35.605Z,41
2023-01-07T17:10:35.748Z,49
2023-01-07T17:12:35.827Z,46
2023-01-07T17:14:35.891Z,56
2023-01-07T17:16:36.044Z,54
2023-01-07T17:18:36.037Z,62
2023-01-07T17:20:36.144Z,52
2023-01-07T17:22:36.210Z,54
2023-01-07T17:24:36.300Z,39
2023-01-07T17:26:40.995Z,45
2023-01-07T17:28:36.470Z,41
2023-01-07T17:30:36.586Z,34
2023-01-07T17:32:36.679Z,31
2023-01-07T17:34:36.753Z,34
2023-01-07T17:36:36.834Z,34
2023-01-07T17:38:36.962Z,29
2023-01-07T17:40:37.030Z,35
2023-01-07T17:42:37.140Z,64
2023-01-07T17:44:37.201Z,72
2023-01-07T17:46:37.304Z,68
2023-01-07T17:48:37.399Z,71
2023-01-07T17:50:37.459Z,70
2023-01-07T17:52:37.573Z,73
2023-01-07T17:54:37.648Z,99
2023-01-07T17:56:37.778Z,117
2023-01-07T17:58:37.841Z,90
2023-01-07T18:00:37.981Z,83
2023-01-07T18:02:38.043Z,87
2023-01-07T18:04:38.127Z,93
2023-01-07T18:06:38.171Z,89
2023-01-07T18:08:38.282Z,98
2023-01-07T18:10:38.349Z,99
2023-01-07T18:12:38.438Z,81
2023-01-07T18:14:38.526Z,69
2023-01-07T18:16:38.701Z,57
2023-01-07T18:18:38.722Z,61
2023-01-07T18:20:38.794Z,60
2023-01-07T18:22:38.921Z,61
2023-01-07T18:24:39.038Z,62
2023-01-07T18:26:39.066Z,60
2023-01-07T18:28:39.177Z,73
2023-01-07T18:31:09.339Z,66
2023-01-07T18:33:09.439Z,53
2023-01-07T18:35:09.577Z,67
2023-01-07T18:37:09.671Z,88
2023-01-07T18:39:09.805Z,84
2023-01-07T18:41:09.929Z,109
2023-01-07T18:43:10.021Z,102
2023-01-07T18:45:10.236Z,85
2023-01-07T18:47:10.278Z,72
2023-01-07T18:49:10.390Z,80
2023-01-07T18:51:10.542Z,84
2023-01-07T18:53:10.656Z,90
2023-01-07T18:55:10.753Z,118
2023-01-07T18:57:10.865Z,114
2023-01-07T18:59:10.990Z,128
2023-01-07T19:01:11.278Z,115
2023-01-07T19:03:11.198Z,130
2023-01-07T19:05:11.362Z,114
2023-01-07T19:07:11.454Z,82
2023-01-07T19:09:11.572Z,69
2023-01-07T19:11:11.775Z,103
2023-01-07T19:13:11.813Z,89
2023-01-07T19:15:11.923Z,91
2023-01-07T19:17:12.018Z,95
2023-01-07T19:19:12.117Z,105
2023-01-07T19:21:12.223Z,111
2023-01-07T19:23:12.348Z,105
2023-01-07T19:25:12.467Z,99
2023-01-07T19:27:12.626Z,93
2023-01-07T19:29:14.088Z,95
2023-01-07T19:31:12.864Z,102
2023-01-07T19:33:12.868Z,96
2023-01-07T19:35:13.018Z,92
2023-01-07T19:37:13.096Z,99
2023-01-07T19:39:13.234Z,84
2023-01-07T19:41:13.329Z,84
2023-01-07T19:43:13.458Z,95
2023-01-07T19:45:13.577Z,88
2023-01-07T19:47:13.672Z,87
2023-01-07T19:49:13.792Z,87
2023-01-07T19:51:13.914Z,82
2023-01-07T19:53:14.010Z,84
2023-01-07T19:55:14.125Z,82
2023-01-07T19:57:14.241Z,85
2023-01-07T19:59:14.357Z,76
2023-01-07T20:01:14.745Z,84
2023-01-07T20:03:14.602Z,78
2023-01-07T20:05:14.686Z,78
2023-01-07T20:07:14.781Z,84
2023-01-07T20:09:14.928Z,86
2023-01-07T20:11:15.025Z,90
2023-01-07T20:13:15.143Z,91
2023-01-07T20:15:15.270Z,86
2023-01-07T20:17:15.386Z,86
2023-01-07T20:19:15.487Z,63
2023-01-07T20:21:15.567Z,50
2023-01-07T20:23:15.695Z,49
2023-01-07T20:25:15.829Z,54
2023-01-07T20:27:15.949Z,49
2023-01-07T20:29:16.029Z,46
2023-01-07T20:31:16.320Z,46
2023-01-07T20:33:16.245Z,45
2023-01-07T20:35:16.399Z,48
2023-01-07T20:37:16.467Z,51
2023-01-07T20:39:16.605Z,54
2023-01-07T20:41:16.678Z,53
2023-01-07T20:43:16.782Z,56
2023-01-07T20:45:16.893Z,39
2023-01-07T20:47:17.064Z,25
2023-01-07T20:49:17.132Z,28
2023-01-07T20:51:17.251Z,30
2023-01-07T20:53:17.403Z,33
2023-01-07T20:55:17.461Z,57
2023-01-07T20:57:17.567Z,87
2023-01-07T20:59:17.669Z,112
2023-01-07T21:01:17.980Z,118
2023-01-07T21:03:17.943Z,140
2023-01-07T21:05:18.009Z,143
2023-01-07T21:07:18.125Z,160
2023-01-07T21:09:18.226Z,170
2023-01-07T21:11:18.338Z,170
2023-01-07T21:13:18.444Z,180
2023-01-07T21:15:18.530Z,194
2023-01-07T21:17:18.656Z,192
2023-01-07T21:19:19.248Z,194
2023-01-07T21:21:18.904Z,197
2023-01-07T21:23:18.985Z,184
2023-01-07T21:25:19.132Z,183
2023-01-07T21:27:19.219Z,173
2023-01-07T21:29:19.350Z,178
2023-01-07T21:31:19.516Z,180
2023-01-07T21:33:19.562Z,156
2023-01-07T21:35:19.737Z,137
2023-01-07T21:37:19.758Z,135
2023-01-07T21:39:19.907Z,104
2023-01-07T21:41:20.007Z,124
2023-01-07T21:43:20.120Z,117
2023-01-07T21:45:20.239Z,106
2023-01-07T21:47:20.312Z,136
2023-01-07T21:49:20.441Z,129
2023-01-07T21:53:20.671Z,91
2023-01-07T21:55:20.793Z,51
2023-01-07T21:57:20.895Z,41
2023-01-07T21:59:21.029Z,38
2023-01-07T22:01:21.258Z,46
2023-01-07T22:03:21.304Z,47
2023-01-07T22:05:21.347Z,45
2023-01-07T22:07:21.428Z,43
2023-01-07T22:09:21.543Z,47
2023-01-07T22:11:21.655Z,47
2023-01-07T22:13:21.754Z,44
2023-01-07T22:15:21.867Z,45
2023-01-07T22:17:21.967Z,46
2023-01-07T22:19:22.088Z,55
2023-01-07T22:21:22.172Z,94
2023-01-07T22:23:22.292Z,91
2023-01-07T22:25:22.396Z,104
2023-01-07T22:27:22.507Z,102
2023-01-07T22:29:22.594Z,111
2023-01-07T22:31:22.820Z,117
2023-01-07T22:33:22.815Z,136
2023-01-07T22:35:22.961Z,121
2023-01-07T22:37:23.067Z,102
2023-01-07T22:39:23.275Z,79
2023-01-07T22:41:23.267Z,95
2023-01-07T22:43:23.394Z,91
2023-01-07T22:45:23.492Z,85
2023-01-07T22:47:23.597Z,96
2023-01-07T22:49:23.672Z,100
2023-01-07T22:51:23.802Z,113
2023-01-07T22:53:23.901Z,123
2023-01-07T22:55:24.004Z,135
2023-01-07T22:57:24.112Z,139
2023-01-07T22:59:24.213Z,135
2023-01-07T23:01:24.445Z,143
2023-01-07T23:03:24.467Z,139
2023-01-07T23:05:24.569Z,140
2023-01-07T23:07:24.650Z,133
2023-01-07T23:09:24.757Z,118
2023-01-07T23:11:24.862Z,114
2023-01-07T23:13:24.979Z,96
2023-01-07T23:15:25.105Z,99
2023-01-07T23:17:25.224Z,63
2023-01-07T23:21:25.427Z,60
2023-01-07T23:23:25.514Z,57
2023-01-07T23:25:25.619Z,39
2023-01-07T23:27:25.821Z,42
2023-01-07T23:31:26.054Z,46
2023-01-07T23:33:26.080Z,51
2023-01-07T23:35:26.188Z,49
2023-01-07T23:37:26.317Z,47
2023-01-07T23:39:26.412Z,48
2023-01-07T23:41:26.493Z,42
2023-01-07T23:43:26.589Z,43
2023-01-07T23:45:26.770Z,30
2023-01-07T23:47:26.827Z,29
2023-01-07T23:49:26.905Z,32
2023-01-07T23:51:27.022Z,29
2023-01-07T23:53:27.182Z,34
2023-01-07T23:55:27.241Z,36
2023-01-07T23:57:27.489Z,34
2023-01-07T23:59:27.476Z,34
